Time;durP1;ratioP1;P1;durP2;ratioP2;P2;SDS_P1;SDS_P2;PMS_P1;PMS_P2;Temp;Humidity;BMP_temperature;BMP_pressure;BME280_temperature;BME280_humidity;BME280_pressure;Samples;Min_cycle;Max_cycle;Signal;HPM_P1;HPM_P2
2022/04/12 00:01:24;0.00;0.00;0.62;0.00;0.00;0.62;6.10;3.40;;;25.30;21.80;;;;;;2248334;61;20915;-65
2022/04/12 00:04:08;0.00;0.00;0.62;0.00;0.00;0.62;3.00;2.63;;;25.20;21.70;;;;;;2248309;61;20371;-66
2022/04/12 00:06:54;0.00;0.00;0.62;0.00;0.00;0.62;3.83;2.93;;;25.20;21.70;;;;;;2247692;61;20407;-63
2022/04/12 00:09:39;0.00;0.00;0.62;0.00;0.00;0.62;2.83;2.57;;;25.20;21.70;;;;;;2248207;61;20422;-65
2022/04/12 00:12:23;0.00;0.00;0.62;0.00;0.00;0.62;3.17;2.63;;;25.20;21.60;;;;;;2248343;61;20411;-65
2022/04/12 00:15:10;0.00;0.00;0.62;0.00;0.00;0.62;2.93;2.60;;;25.10;21.60;;;;;;2247808;61;20551;-65
2022/04/12 00:21:00;0.00;0.00;0.62;0.00;0.00;0.62;3.13;2.63;;;25.10;21.50;;;;;;2248024;61;20452;-70
2022/04/12 00:23:46;0.00;0.00;0.62;0.00;0.00;0.62;5.43;2.90;;;25.10;21.60;;;;;;2245460;61;20360;-65
2022/04/12 00:26:32;0.00;0.00;0.62;0.00;0.00;0.62;3.87;3.00;;;25.00;21.50;;;;;;2248099;61;20379;-66
2022/04/12 00:29:17;0.00;0.00;0.62;0.00;0.00;0.62;4.50;2.53;;;25.00;21.50;;;;;;2247490;61;20367;-65
2022/04/12 00:32:01;0.00;0.00;0.62;0.00;0.00;0.62;3.23;2.93;;;25.00;21.50;;;;;;2245488;61;20531;-64
2022/04/12 00:34:46;0.00;0.00;0.62;0.00;0.00;0.62;3.80;2.87;;;25.00;21.40;;;;;;2248063;61;20487;-63
2022/04/12 00:37:30;0.00;0.00;0.62;0.00;0.00;0.62;5.17;3.17;;;24.90;21.40;;;;;;2247872;61;20372;-64
2022/04/12 00:40:18;0.00;0.00;0.62;0.00;0.00;0.62;3.63;2.73;;;24.90;21.40;;;;;;2247849;61;20374;-66
2022/04/12 00:43:03;0.00;0.00;0.62;0.00;0.00;0.62;3.30;2.63;;;24.90;21.40;;;;;;2248050;61;20488;-64
2022/04/12 00:45:48;0.00;0.00;0.62;0.00;0.00;0.62;6.00;3.03;;;24.90;21.40;;;;;;2248936;61;20355;-65
2022/04/12 00:48:34;0.00;0.00;0.62;0.00;0.00;0.62;3.10;2.60;;;24.90;21.40;;;;;;2247588;61;20414;-66
2022/04/12 00:51:20;0.00;0.00;0.62;0.00;0.00;0.62;4.33;3.17;;;24.80;21.30;;;;;;2247444;61;20399;-65
2022/04/12 00:54:05;0.00;0.00;0.62;0.00;0.00;0.62;3.80;3.50;;;24.80;21.30;;;;;;2248538;61;20419;-63
2022/04/12 00:56:52;0.00;0.00;0.62;0.00;0.00;0.62;3.60;3.10;;;24.80;21.30;;;;;;2248020;61;20363;-65
2022/04/12 00:59:37;0.00;0.00;0.62;0.00;0.00;0.62;3.43;3.13;;;24.70;21.20;;;;;;2247371;61;20368;-65
2022/04/12 01:02:22;0.00;0.00;0.62;0.00;0.00;0.62;3.03;2.70;;;24.70;21.20;;;;;;2247940;61;20363;-65
2022/04/12 01:05:08;0.00;0.00;0.62;0.00;0.00;0.62;5.00;3.17;;;24.70;21.10;;;;;;2248231;61;20451;-65
2022/04/12 01:07:53;0.00;0.00;0.62;0.00;0.00;0.62;3.17;2.87;;;24.70;21.10;;;;;;2247568;61;20411;-66
2022/04/12 01:10:38;0.00;0.00;0.62;0.00;0.00;0.62;3.60;2.97;;;24.70;21.10;;;;;;2247885;61;20386;-64
2022/04/12 01:13:25;0.00;0.00;0.62;0.00;0.00;0.62;4.00;3.30;;;24.60;21.00;;;;;;2247509;61;20368;-63
2022/04/12 01:16:09;0.00;0.00;0.62;0.00;0.00;0.62;3.70;3.30;;;24.60;21.00;;;;;;2248396;61;20402;-68
2022/04/12 01:18:54;0.00;0.00;0.62;0.00;0.00;0.62;4.13;3.70;;;24.60;21.00;;;;;;2247348;61;20419;-65
2022/04/12 01:21:46;0.00;0.00;0.62;0.00;0.00;0.62;3.97;3.57;;;24.60;21.00;;;;;;2247860;61;20793;-64
2022/04/12 01:24:34;0.00;0.00;0.62;0.00;0.00;0.62;2.97;2.67;;;24.50;21.00;;;;;;2244768;61;20368;-67
2022/04/12 01:27:19;0.00;0.00;0.62;0.00;0.00;0.62;5.30;3.30;;;24.50;21.00;;;;;;2248210;61;20376;-64
2022/04/12 01:30:06;0.00;0.00;0.62;0.00;0.00;0.62;3.70;2.93;;;24.50;21.00;;;;;;2247632;61;20423;-66
2022/04/12 01:32:50;0.00;0.00;0.62;0.00;0.00;0.62;3.57;2.73;;;24.50;21.00;;;;;;2247855;61;20419;-63
2022/04/12 01:35:35;0.00;0.00;0.62;0.00;0.00;0.62;4.27;3.87;;;24.40;21.00;;;;;;2247889;61;20391;-64
2022/04/12 01:38:19;0.00;0.00;0.62;0.00;0.00;0.62;3.10;2.80;;;24.40;21.00;;;;;;2247899;61;20411;-63
2022/04/12 01:41:05;0.00;0.00;0.62;0.00;0.00;0.62;3.90;3.30;;;24.40;21.00;;;;;;2248134;61;20395;-64
2022/04/12 01:43:49;0.00;0.00;0.62;0.00;0.00;0.62;3.87;3.40;;;24.40;20.90;;;;;;2247893;61;20414;-66
2022/04/12 01:46:34;0.00;0.00;0.62;0.00;0.00;0.62;4.20;3.30;;;24.30;20.90;;;;;;2247706;61;20399;-64
2022/04/12 01:49:19;0.00;0.00;0.62;0.00;0.00;0.62;3.40;2.97;;;24.30;20.90;;;;;;2247610;61;20372;-65
2022/04/12 01:52:04;0.00;0.00;0.62;0.00;0.00;0.62;4.70;3.23;;;24.30;20.90;;;;;;2247934;61;20423;-66
2022/04/12 01:54:49;0.00;0.00;0.62;0.00;0.00;0.62;4.03;3.47;;;24.30;21.00;;;;;;2247818;61;20486;-64
2022/04/12 01:57:35;0.00;0.00;0.62;0.00;0.00;0.62;4.10;3.07;;;24.20;20.90;;;;;;2247399;61;20771;-66
2022/04/12 02:00:20;0.00;0.00;0.62;0.00;0.00;0.62;2.53;2.30;;;24.20;21.00;;;;;;2248141;61;20388;-65
2022/04/12 02:03:05;0.00;0.00;0.62;0.00;0.00;0.62;3.83;3.43;;;24.20;20.90;;;;;;2244828;61;20380;-64
2022/04/12 02:05:51;0.00;0.00;0.62;0.00;0.00;0.62;3.57;3.27;;;24.20;21.00;;;;;;2247620;61;20380;-61
2022/04/12 02:08:36;0.00;0.00;0.62;0.00;0.00;0.62;4.03;3.33;;;24.20;21.00;;;;;;2247338;61;20888;-63
2022/04/12 02:11:21;0.00;0.00;0.62;0.00;0.00;0.62;3.70;3.07;;;24.10;20.90;;;;;;2248270;61;20407;-66
2022/04/12 02:14:07;0.00;0.00;0.62;0.00;0.00;0.62;3.53;2.97;;;24.10;20.90;;;;;;2247782;61;20395;-65
2022/04/12 02:16:52;0.00;0.00;0.62;0.00;0.00;0.62;3.87;3.37;;;24.10;21.00;;;;;;2247543;61;20374;-62
2022/04/12 02:19:36;0.00;0.00;0.62;0.00;0.00;0.62;3.73;3.40;;;24.10;21.00;;;;;;2246769;61;20823;-64
2022/04/12 02:22:21;0.00;0.00;0.62;0.00;0.00;0.62;3.80;3.47;;;24.00;20.90;;;;;;2247916;61;20469;-65
2022/04/12 02:25:07;0.00;0.00;0.62;0.00;0.00;0.62;3.43;2.87;;;24.00;21.00;;;;;;2247595;61;20395;-64
2022/04/12 02:27:51;0.00;0.00;0.62;0.00;0.00;0.62;4.43;3.40;;;24.00;21.00;;;;;;2244547;61;20383;-63
2022/04/12 02:30:38;0.00;0.00;0.62;0.00;0.00;0.62;3.73;3.00;;;24.00;21.00;;;;;;2248725;61;20394;-65
2022/04/12 02:33:22;0.00;0.00;0.62;0.00;0.00;0.62;3.63;2.97;;;23.90;21.00;;;;;;2245413;61;20371;-65
2022/04/12 02:36:07;0.00;0.00;0.62;0.00;0.00;0.62;4.30;3.03;;;23.90;21.00;;;;;;2245182;61;20786;-65
2022/04/12 02:38:51;0.00;0.00;0.62;0.00;0.00;0.62;3.13;2.83;;;23.90;21.00;;;;;;2248002;61;20840;-62
2022/04/12 02:41:36;0.00;0.00;0.62;0.00;0.00;0.62;3.70;3.00;;;23.90;21.10;;;;;;2248394;61;20423;-62
2022/04/12 02:44:21;0.00;0.00;0.62;0.00;0.00;0.62;4.20;3.57;;;23.80;21.00;;;;;;2248916;61;20439;-66
2022/04/12 02:47:07;0.00;0.00;0.62;0.00;0.00;0.62;3.10;2.80;;;23.80;21.00;;;;;;2248305;61;20898;-65
2022/04/12 02:49:52;0.00;0.00;0.62;0.00;0.00;0.62;3.67;3.10;;;23.80;21.10;;;;;;2247925;61;20376;-65
2022/04/12 02:52:37;0.00;0.00;0.62;0.00;0.00;0.62;4.60;3.47;;;23.80;21.10;;;;;;2248898;61;20888;-65
2022/04/12 02:55:22;0.00;0.00;0.62;0.00;0.00;0.62;3.23;2.73;;;23.70;21.60;;;;;;2248610;61;20820;-67
2022/04/12 02:58:07;0.00;0.00;0.62;0.00;0.00;0.62;3.37;3.07;;;23.70;21.10;;;;;;2247724;61;20371;-66
2022/04/12 03:00:51;0.00;0.00;0.62;0.00;0.00;0.62;3.50;3.03;;;23.70;21.10;;;;;;2248288;61;20987;-65
2022/04/12 03:03:37;0.00;0.00;0.62;0.00;0.00;0.62;4.00;3.00;;;23.70;21.10;;;;;;2245309;61;20435;-65
2022/04/12 03:06:21;0.00;0.00;0.62;0.00;0.00;0.62;3.30;2.90;;;23.70;21.10;;;;;;2248666;61;20904;-63
2022/04/12 03:09:06;0.00;0.00;0.62;0.00;0.00;0.62;3.40;3.03;;;23.70;21.10;;;;;;2247863;61;20423;-64
2022/04/12 03:11:50;0.00;0.00;0.62;0.00;0.00;0.62;3.97;3.43;;;23.60;21.00;;;;;;2248020;61;21000;-65
2022/04/12 03:14:35;0.00;0.00;0.62;0.00;0.00;0.62;3.67;2.90;;;23.60;21.00;;;;;;2248755;61;20936;-65
2022/04/12 03:17:20;0.00;0.00;0.62;0.00;0.00;0.62;4.60;3.50;;;23.60;21.10;;;;;;2248257;61;20403;-64
2022/04/12 03:20:08;0.00;0.00;0.62;0.00;0.00;0.62;4.90;3.30;;;23.60;21.10;;;;;;2247760;61;20773;-64
2022/04/12 03:22:53;0.00;0.00;0.62;0.00;0.00;0.62;3.73;3.40;;;23.60;21.10;;;;;;2248213;61;20375;-63
2022/04/12 03:25:39;0.00;0.00;0.62;0.00;0.00;0.62;3.53;3.00;;;23.50;21.00;;;;;;2248320;61;20391;-65
2022/04/12 03:28:24;0.00;0.00;0.62;0.00;0.00;0.62;4.00;3.30;;;23.50;21.00;;;;;;2247950;61;20931;-66
2022/04/12 03:31:08;0.00;0.00;0.62;0.00;0.00;0.62;3.90;3.40;;;23.50;21.00;;;;;;2247994;61;20441;-65
2022/04/12 03:33:53;0.00;0.00;0.62;0.00;0.00;0.62;4.07;3.57;;;23.50;21.10;;;;;;2247866;61;20836;-63
2022/04/12 03:36:39;0.00;0.00;0.62;0.00;0.00;0.62;4.30;2.93;;;23.50;21.10;;;;;;2248152;61;21070;-62
2022/04/12 03:39:25;0.00;0.00;0.62;0.00;0.00;0.62;3.73;3.10;;;23.50;21.20;;;;;;2244823;61;20371;-64
2022/04/12 03:42:11;0.00;0.00;0.62;0.00;0.00;0.62;3.70;3.33;;;23.50;21.20;;;;;;2248027;61;20388;-63
2022/04/12 03:44:56;0.00;0.00;0.62;0.00;0.00;0.62;3.43;3.13;;;23.40;21.20;;;;;;2248318;61;20867;-64
2022/04/12 03:47:40;0.00;0.00;0.62;0.00;0.00;0.62;4.50;3.27;;;23.40;21.20;;;;;;2248410;61;20367;-63
2022/04/12 03:50:26;0.00;0.00;0.62;0.00;0.00;0.62;3.93;3.53;;;23.40;21.20;;;;;;2248297;61;20442;-63
2022/04/12 03:53:12;0.00;0.00;0.62;0.00;0.00;0.62;3.90;3.30;;;23.40;21.20;;;;;;2248278;61;20414;-63
2022/04/12 03:55:56;0.00;0.00;0.62;0.00;0.00;0.62;4.53;3.20;;;23.40;21.20;;;;;;2245014;61;20359;-64
2022/04/12 03:58:41;0.00;0.00;0.62;0.00;0.00;0.62;4.40;3.37;;;23.40;21.20;;;;;;2248147;61;20872;-64
2022/04/12 04:01:28;0.00;0.00;0.62;0.00;0.00;0.62;4.47;3.23;;;23.30;21.10;;;;;;2248248;61;20417;-62
2022/04/12 04:04:13;0.00;0.00;0.62;0.00;0.00;0.62;3.87;3.07;;;23.30;21.10;;;;;;2248032;61;20375;-65
2022/04/12 04:06:58;0.00;0.00;0.62;0.00;0.00;0.62;3.87;3.10;;;23.30;21.10;;;;;;2248351;61;20370;-66
2022/04/12 04:09:43;0.00;0.00;0.62;0.00;0.00;0.62;4.93;3.57;;;23.30;21.10;;;;;;2248127;61;20847;-63
2022/04/12 04:12:28;0.00;0.00;0.62;0.00;0.00;0.62;4.60;3.00;;;23.30;21.10;;;;;;2248321;61;20909;-64
2022/04/12 04:15:14;0.00;0.00;0.62;0.00;0.00;0.62;3.40;3.00;;;23.30;21.10;;;;;;2248235;61;20480;-61
2022/04/12 04:17:59;0.00;0.00;0.62;0.00;0.00;0.62;4.73;3.40;;;23.30;21.10;;;;;;2247649;61;20364;-65
2022/04/12 04:20:43;0.00;0.00;0.62;0.00;0.00;0.62;3.07;2.73;;;23.20;21.00;;;;;;2248582;61;20754;-63
2022/04/12 04:23:28;0.00;0.00;0.62;0.00;0.00;0.62;3.90;3.23;;;23.20;21.00;;;;;;2248130;61;20382;-64
2022/04/12 04:26:14;0.00;0.00;0.62;0.00;0.00;0.62;4.23;3.33;;;23.20;21.00;;;;;;2247876;61;20450;-65
2022/04/12 04:29:00;0.00;0.00;0.62;0.00;0.00;0.62;3.17;2.87;;;23.20;21.00;;;;;;2248097;61;20849;-65
2022/04/12 04:31:45;0.00;0.00;0.62;0.00;0.00;0.62;7.03;3.20;;;23.20;21.00;;;;;;2245084;61;20471;-64
2022/04/12 04:34:29;0.00;0.00;0.62;0.00;0.00;0.62;4.13;3.33;;;23.10;20.90;;;;;;2248029;61;20476;-65
2022/04/12 04:37:14;0.00;0.00;0.62;0.00;0.00;0.62;3.37;3.07;;;23.20;21.00;;;;;;2244626;61;20887;-66
2022/04/12 04:39:58;0.00;0.00;0.62;0.00;0.00;0.62;4.30;3.30;;;23.10;20.90;;;;;;2247703;61;20944;-64
2022/04/12 04:42:45;0.00;0.00;0.62;0.00;0.00;0.62;4.10;3.17;;;23.10;20.90;;;;;;2248200;61;20454;-65
2022/04/12 04:45:30;0.00;0.00;0.62;0.00;0.00;0.62;3.23;2.90;;;23.10;20.90;;;;;;2247778;61;20463;-57
2022/04/12 04:48:15;0.00;0.00;0.62;0.00;0.00;0.62;4.33;3.27;;;23.10;20.90;;;;;;2247129;61;20491;-59
2022/04/12 04:50:59;0.00;0.00;0.62;0.00;0.00;0.62;4.93;3.23;;;23.00;20.90;;;;;;2248632;61;20439;-62
2022/04/12 04:53:49;0.00;0.00;0.62;0.00;0.00;0.62;4.30;3.33;;;23.00;20.90;;;;;;2248113;61;20364;-60
2022/04/12 04:56:34;0.00;0.00;0.62;0.00;0.00;0.62;3.77;2.83;;;23.00;20.90;;;;;;2247773;61;20456;-61
2022/04/12 04:59:20;0.00;0.00;0.62;0.00;0.00;0.62;3.60;3.03;;;23.00;20.90;;;;;;2247327;61;20368;-62
2022/04/12 05:02:04;0.00;0.00;0.62;0.00;0.00;0.62;3.77;3.03;;;23.00;20.90;;;;;;2247916;61;20399;-62
2022/04/12 05:04:49;0.00;0.00;0.62;0.00;0.00;0.62;4.07;3.50;;;22.90;20.80;;;;;;2245327;61;20364;-70
2022/04/12 05:07:33;0.00;0.00;0.62;0.00;0.00;0.62;4.57;3.37;;;23.00;20.90;;;;;;2247541;61;20372;-63
2022/04/12 05:10:21;0.00;0.00;0.62;0.00;0.00;0.62;4.07;3.50;;;22.90;20.80;;;;;;2247953;61;20908;-64
2022/04/12 05:13:06;0.00;0.00;0.62;0.00;0.00;0.62;4.00;3.20;;;22.90;20.80;;;;;;2248433;61;20368;-63
2022/04/12 05:15:52;0.00;0.00;0.62;0.00;0.00;0.62;5.80;3.93;;;22.90;20.80;;;;;;2247828;61;20391;-65
2022/04/12 05:18:37;0.00;0.00;0.62;0.00;0.00;0.62;3.77;3.07;;;22.90;20.80;;;;;;2247515;61;20371;-60
2022/04/12 05:21:21;0.00;0.00;0.62;0.00;0.00;0.62;4.03;3.63;;;22.90;20.80;;;;;;2247825;61;20419;-64
2022/04/12 05:24:06;0.00;0.00;0.62;0.00;0.00;0.62;3.93;3.10;;;22.90;20.80;;;;;;2248164;61;20459;-65
2022/04/12 05:26:50;0.00;0.00;0.62;0.00;0.00;0.62;5.17;3.40;;;22.90;20.80;;;;;;2247987;61;20499;-66
2022/04/12 05:29:36;0.00;0.00;0.62;0.00;0.00;0.62;3.30;3.00;;;22.80;20.70;;;;;;2247491;61;20826;-65
2022/04/12 05:32:22;0.00;0.00;0.62;0.00;0.00;0.62;4.23;3.30;;;22.90;20.80;;;;;;2247593;61;20761;-64
2022/04/12 05:35:09;0.00;0.00;0.62;0.00;0.00;0.62;4.40;2.97;;;22.80;20.70;;;;;;2248261;61;20446;-66
2022/04/12 05:37:54;0.00;0.00;0.62;0.00;0.00;0.62;5.00;3.60;;;22.80;20.70;;;;;;2247439;61;20419;-64
2022/04/12 05:40:39;0.00;0.00;0.62;0.00;0.00;0.62;5.07;3.70;;;22.80;20.70;;;;;;2247896;61;20477;-63
2022/04/12 05:43:24;0.00;0.00;0.62;0.00;0.00;0.62;4.73;2.70;;;22.80;20.70;;;;;;2247769;61;20407;-64
2022/04/12 05:46:08;0.00;0.00;0.62;0.00;0.00;0.62;4.17;3.37;;;22.80;20.70;;;;;;2248155;61;20419;-63
2022/04/12 05:48:54;0.00;0.00;0.62;0.00;0.00;0.62;5.67;2.70;;;22.80;20.70;;;;;;2247443;61;20407;-66
2022/04/12 05:51:39;0.00;0.00;0.62;0.00;0.00;0.62;3.23;2.40;;;22.80;20.70;;;;;;2247661;61;20446;-64
2022/04/12 05:54:24;0.00;0.00;0.62;0.00;0.00;0.62;5.83;2.80;;;22.80;20.70;;;;;;2247838;61;20392;-62
2022/04/12 05:57:08;0.00;0.00;0.62;0.00;0.00;0.62;3.40;2.40;;;22.80;20.90;;;;;;2248339;61;20584;-63
2022/04/12 05:59:53;0.00;0.00;0.62;0.00;0.00;0.62;5.10;2.70;;;22.80;21.00;;;;;;2244325;61;20372;-63
2022/04/12 06:02:37;0.00;0.00;0.62;0.00;0.00;0.62;3.17;2.13;;;22.70;21.00;;;;;;2248564;61;20379;-64
2022/04/12 06:05:28;0.00;0.00;0.62;0.00;0.00;0.62;4.73;2.20;;;22.80;21.00;;;;;;2248445;61;20885;-66
2022/04/12 06:08:13;0.00;0.00;0.62;0.00;0.00;0.62;3.23;2.13;;;22.80;21.10;;;;;;2248432;61;20399;-65
2022/04/12 06:10:57;0.00;0.00;0.62;0.00;0.00;0.62;3.00;2.07;;;22.80;21.10;;;;;;2248715;61;20454;-61
2022/04/12 06:13:42;0.00;0.00;0.62;0.00;0.00;0.62;2.97;2.30;;;22.80;21.20;;;;;;2248640;61;20446;-63
2022/04/12 06:16:27;0.00;0.00;0.62;0.00;0.00;0.62;3.50;1.93;;;22.80;21.20;;;;;;2247922;61;20853;-63
2022/04/12 06:19:11;0.00;0.00;0.62;0.00;0.00;0.62;2.50;1.90;;;22.80;21.20;;;;;;2248663;61;20436;-64
2022/04/12 06:21:57;0.00;0.00;0.62;0.00;0.00;0.62;3.50;2.07;;;22.80;21.20;;;;;;2248445;61;20422;-64
2022/04/12 06:24:42;0.00;0.00;0.62;0.00;0.00;0.62;4.17;2.00;;;22.80;21.20;;;;;;2248123;61;20371;-65
2022/04/12 06:27:31;0.00;0.00;0.62;0.00;0.00;0.62;3.23;1.73;;;22.80;21.20;;;;;;2248731;61;20412;-65
2022/04/12 06:30:19;0.00;0.00;0.62;0.00;0.00;0.62;2.67;2.10;;;22.80;21.20;;;;;;2248870;61;20360;-63
2022/04/12 06:33:04;0.00;0.00;0.62;0.00;0.00;0.62;2.83;2.10;;;22.90;21.30;;;;;;2248669;61;20923;-65
2022/04/12 06:35:48;0.00;0.00;0.62;0.00;0.00;0.62;2.40;1.73;;;22.80;21.30;;;;;;2248443;61;20443;-66
2022/04/12 06:38:34;0.00;0.00;0.62;0.00;0.00;0.62;2.70;1.77;;;22.90;21.40;;;;;;2247736;61;21194;-67
2022/04/12 06:41:19;0.00;0.00;0.62;0.00;0.00;0.62;2.57;1.63;;;22.90;21.40;;;;;;2249012;61;20387;-65
2022/04/12 06:44:06;0.00;0.00;0.62;0.00;0.00;0.62;2.13;1.43;;;22.90;21.40;;;;;;2245314;61;20493;-65
2022/04/12 06:46:51;0.00;0.00;0.62;0.00;0.00;0.62;2.23;1.57;;;22.90;21.40;;;;;;2248278;61;20936;-65
2022/04/12 06:49:35;0.00;0.00;0.62;0.00;0.00;0.62;2.60;1.90;;;22.90;21.40;;;;;;2248349;61;20898;-64
2022/04/12 06:52:21;0.00;0.00;0.62;0.00;0.00;0.62;2.90;2.00;;;22.90;21.40;;;;;;2248867;61;20387;-66
2022/04/12 06:55:08;0.00;0.00;0.62;0.00;0.00;0.62;2.73;2.07;;;22.90;21.40;;;;;;2248541;61;20387;-66
2022/04/12 06:57:54;0.00;0.00;0.62;0.00;0.00;0.62;2.73;1.43;;;22.90;21.40;;;;;;2244706;61;20372;-66
2022/04/12 07:00:40;0.00;0.00;0.62;0.00;0.00;0.62;2.20;1.80;;;23.00;21.50;;;;;;2248512;61;20387;-62
2022/04/12 07:03:25;0.00;0.00;0.62;0.00;0.00;0.62;2.70;1.80;;;23.00;21.50;;;;;;2249155;61;20364;-64
2022/04/12 07:06:09;0.00;0.00;0.62;0.00;0.00;0.62;2.10;1.60;;;23.00;21.50;;;;;;2248254;61;20396;-65
2022/04/12 07:08:53;0.00;0.00;0.62;0.00;0.00;0.62;2.20;1.60;;;23.00;21.40;;;;;;2247764;61;20446;-65
2022/04/12 07:11:39;0.00;0.00;0.62;0.00;0.00;0.62;2.53;1.60;;;23.00;21.40;;;;;;2248529;61;20380;-65
2022/04/12 07:14:25;0.00;0.00;0.62;0.00;0.00;0.62;2.83;1.63;;;23.00;21.40;;;;;;2248226;61;20438;-63
2022/04/12 07:17:09;0.00;0.00;0.62;0.00;0.00;0.62;2.90;2.00;;;23.00;21.40;;;;;;2247931;61;20367;-64
2022/04/12 07:19:55;0.00;0.00;0.62;0.00;0.00;0.62;2.23;1.30;;;23.00;21.40;;;;;;2247896;61;20515;-66
2022/04/12 07:22:40;0.00;0.00;0.62;0.00;0.00;0.62;2.20;1.30;;;23.00;21.50;;;;;;2248654;61;20376;-64
2022/04/12 07:25:24;0.00;0.00;0.62;0.00;0.00;0.62;1.77;1.30;;;23.00;21.40;;;;;;2248870;61;20364;-65
2022/04/12 07:28:10;0.00;0.00;0.62;0.00;0.00;0.62;2.60;1.43;;;23.10;21.50;;;;;;2247685;61;20387;-63
2022/04/12 07:30:54;0.00;0.00;0.62;0.00;0.00;0.62;2.97;1.40;;;23.10;21.50;;;;;;2248028;61;20872;-65
2022/04/12 07:33:39;0.00;0.00;0.62;0.00;0.00;0.62;1.93;1.17;;;23.10;21.50;;;;;;2248543;61;20368;-66
2022/04/12 07:36:23;0.00;0.00;0.62;0.00;0.00;0.62;2.33;1.50;;;23.10;21.50;;;;;;2248293;61;20414;-64
2022/04/12 07:39:08;0.00;0.00;0.62;0.00;0.00;0.62;2.57;1.33;;;23.10;21.50;;;;;;2247618;61;20380;-65
2022/04/12 07:41:52;0.00;0.00;0.62;0.00;0.00;0.62;2.20;1.30;;;23.10;21.50;;;;;;2247566;61;20961;-66
2022/04/12 07:44:38;0.00;0.00;0.62;0.00;0.00;0.62;2.17;1.43;;;23.10;21.50;;;;;;2248169;61;20631;-66
2022/04/12 07:47:24;0.00;0.00;0.62;0.00;0.00;0.62;2.40;1.60;;;23.20;21.50;;;;;;2248382;61;20375;-65
2022/04/12 07:50:09;0.00;0.00;0.62;0.00;0.00;0.62;2.40;1.37;;;23.20;21.50;;;;;;2247582;61;20367;-67
2022/04/12 07:52:54;0.00;0.00;0.62;0.00;0.00;0.62;1.80;1.20;;;23.20;21.50;;;;;;2247587;61;20888;-64
2022/04/12 07:55:39;0.00;0.00;0.62;0.00;0.00;0.62;1.77;1.10;;;23.20;21.50;;;;;;2248435;61;20390;-66
2022/04/12 07:58:23;0.00;0.00;0.62;0.00;0.00;0.62;1.63;1.20;;;23.20;21.50;;;;;;2248018;61;20395;-64
2022/04/12 08:01:09;0.00;0.00;0.62;0.00;0.00;0.62;1.93;1.40;;;23.20;21.50;;;;;;2247978;61;20850;-66
2022/04/12 08:03:54;0.00;0.00;0.62;0.00;0.00;0.62;2.30;1.20;;;23.20;21.50;;;;;;2248142;61;20371;-65
2022/04/12 08:06:38;0.00;0.00;0.62;0.00;0.00;0.62;1.87;1.30;;;23.20;21.50;;;;;;2248424;61;20359;-66
2022/04/12 08:09:23;0.00;0.00;0.62;0.00;0.00;0.62;2.00;1.40;;;23.30;21.60;;;;;;2247677;61;20524;-66
2022/04/12 08:12:08;0.00;0.00;0.62;0.00;0.00;0.62;1.80;1.30;;;23.30;21.60;;;;;;2248028;61;20424;-63
2022/04/12 08:14:52;0.00;0.00;0.62;0.00;0.00;0.62;2.00;1.10;;;23.30;21.60;;;;;;2247966;61;20391;-63
2022/04/12 08:17:39;0.00;0.00;0.62;0.00;0.00;0.62;2.00;1.37;;;23.30;21.60;;;;;;2248388;61;21056;-64
2022/04/12 08:20:23;0.00;0.00;0.62;0.00;0.00;0.62;1.43;1.00;;;23.30;21.60;;;;;;2248193;61;20438;-63
2022/04/12 08:23:08;0.00;0.00;0.62;0.00;0.00;0.62;1.50;1.17;;;23.30;21.60;;;;;;2248049;61;20434;-64
2022/04/12 08:25:53;0.00;0.00;0.62;0.00;0.00;0.62;1.60;1.17;;;23.40;21.60;;;;;;2248407;61;20367;-64
2022/04/12 08:28:39;0.00;0.00;0.62;0.00;0.00;0.62;1.90;1.10;;;23.40;21.60;;;;;;2248177;61;20379;-63
2022/04/12 08:31:24;0.00;0.00;0.62;0.00;0.00;0.62;2.73;1.43;;;23.40;21.60;;;;;;2248316;61;20418;-64
2022/04/12 08:34:10;0.00;0.00;0.62;0.00;0.00;0.62;1.60;0.90;;;23.40;21.60;;;;;;2248031;61;20399;-64
2022/04/12 08:36:55;0.00;0.00;0.62;0.00;0.00;0.62;1.80;1.00;;;23.40;21.60;;;;;;2248295;61;20841;-65
2022/04/12 08:39:40;0.00;0.00;0.62;0.00;0.00;0.62;2.17;1.40;;;23.40;21.60;;;;;;2245041;61;20368;-64
2022/04/12 08:42:24;0.00;0.00;0.62;0.00;0.00;0.62;1.90;1.30;;;23.40;21.60;;;;;;2248046;61;20669;-62
2022/04/12 08:45:10;0.00;0.00;0.62;0.00;0.00;0.62;1.33;0.83;;;23.40;21.60;;;;;;2247700;61;20441;-64
2022/04/12 08:47:56;0.00;0.00;0.62;0.00;0.00;0.62;2.37;0.90;;;23.40;21.60;;;;;;2248031;61;20400;-65
2022/04/12 08:50:42;0.00;0.00;0.62;0.00;0.00;0.62;1.50;0.97;;;23.50;21.70;;;;;;2248449;61;20387;-65
2022/04/12 08:53:28;0.00;0.00;0.62;0.00;0.00;0.62;2.03;1.17;;;23.50;21.70;;;;;;2248019;61;20391;-64
2022/04/12 08:56:12;0.00;0.00;0.62;0.00;0.00;0.62;1.60;1.03;;;23.50;21.70;;;;;;2248079;61;20931;-63
2022/04/12 08:58:58;0.00;0.00;0.62;0.00;0.00;0.62;1.67;1.13;;;23.50;21.70;;;;;;2247728;61;21018;-65
2022/04/12 09:01:43;0.00;0.00;0.62;0.00;0.00;0.62;2.00;1.10;;;23.50;21.70;;;;;;2248361;61;20387;-64
2022/04/12 09:04:28;0.00;0.00;0.62;0.00;0.00;0.62;1.37;0.80;;;23.50;21.70;;;;;;2248355;61;20823;-66
2022/04/12 09:07:14;0.00;0.00;0.62;0.00;0.00;0.62;1.67;1.00;;;23.50;21.70;;;;;;2244092;61;20456;-65
2022/04/12 09:10:07;0.00;0.00;0.62;0.00;0.00;0.62;1.57;1.13;;;23.60;21.70;;;;;;2247845;61;20368;-65
2022/04/12 09:12:52;0.00;0.00;0.62;0.00;0.00;0.62;1.40;0.90;;;23.60;21.70;;;;;;2248428;61;20963;-66
2022/04/12 09:15:44;0.00;0.00;0.62;0.00;0.00;0.62;2.23;1.30;;;23.60;21.70;;;;;;2244752;61;20975;-65
2022/04/12 09:18:34;0.00;0.00;0.62;0.00;0.00;0.62;2.27;1.03;;;23.60;21.70;;;;;;2247492;61;20751;-64
2022/04/12 09:21:22;0.00;0.00;0.62;0.00;0.00;0.62;1.70;1.00;;;23.60;21.80;;;;;;2248102;61;20387;-65
2022/04/12 09:24:08;0.00;0.00;0.62;0.00;0.00;0.62;1.50;1.00;;;23.60;21.80;;;;;;2248607;61;20445;-63
2022/04/12 09:26:56;0.00;0.00;0.62;0.00;0.00;0.62;1.90;1.13;;;23.60;21.80;;;;;;2247877;61;20371;-65
2022/04/12 09:29:47;0.00;0.00;0.62;0.00;0.00;0.62;1.67;1.00;;;23.70;21.80;;;;;;2247471;61;20908;-65
2022/04/12 09:32:36;0.00;0.00;0.62;0.00;0.00;0.62;1.50;0.90;;;23.70;21.80;;;;;;2248374;61;20375;-65
2022/04/12 09:35:22;0.00;0.00;0.62;0.00;0.00;0.62;2.37;1.30;;;23.70;21.80;;;;;;2248186;61;20394;-64
2022/04/12 09:38:10;0.00;0.00;0.62;0.00;0.00;0.62;2.17;1.10;;;23.70;21.80;;;;;;2244494;61;20842;-65
2022/04/12 09:44:05;0.00;0.00;0.62;0.00;0.00;0.62;1.73;0.80;;;23.70;21.80;;;;;;1672141;74;20466;-65
2022/04/12 09:46:52;0.00;0.00;0.62;0.00;0.00;0.62;1.50;1.00;;;23.70;21.80;;;;;;2263598;61;20846;-66
2022/04/12 09:49:44;0.00;0.00;0.62;0.00;0.00;0.62;1.40;0.90;;;23.80;21.90;;;;;;2262962;61;20360;-66
2022/04/12 09:52:28;0.00;0.00;0.62;0.00;0.00;0.62;1.57;0.90;;;23.80;21.90;;;;;;2258756;61;20358;-65
2022/04/12 09:55:13;0.00;0.00;0.62;0.00;0.00;0.62;1.80;1.00;;;23.80;21.90;;;;;;2259004;61;20360;-63
2022/04/12 09:58:00;0.00;0.00;0.62;0.00;0.00;0.62;1.43;1.03;;;23.80;21.90;;;;;;2258884;61;20366;-64
2022/04/12 10:00:49;0.00;0.00;0.62;0.00;0.00;0.62;1.70;0.90;;;23.80;21.90;;;;;;2259075;61;20453;-65
2022/04/12 10:03:35;0.00;0.00;0.62;0.00;0.00;0.62;1.80;1.00;;;23.90;22.00;;;;;;2255663;61;20524;-65
2022/04/12 10:06:23;0.00;0.00;0.62;0.00;0.00;0.62;1.43;0.97;;;23.90;22.00;;;;;;2259197;61;20774;-64
2022/04/12 10:09:13;0.00;0.00;0.62;0.00;0.00;0.62;1.37;0.90;;;23.90;22.00;;;;;;2259218;61;20365;-69
2022/04/12 10:11:58;0.00;0.00;0.62;0.00;0.00;0.62;1.70;1.00;;;23.90;22.00;;;;;;2259456;61;20393;-69
2022/04/12 10:14:43;0.00;0.00;0.62;0.00;0.00;0.62;1.70;1.13;;;23.90;22.00;;;;;;2259120;61;20400;-65
2022/04/12 10:17:32;0.00;0.00;0.62;0.00;0.00;0.62;1.77;1.03;;;24.00;22.00;;;;;;2259023;61;20388;-64
2022/04/12 10:20:18;0.00;0.00;0.62;0.00;0.00;0.62;1.50;0.87;;;24.00;22.10;;;;;;2259085;61;20903;-65
2022/04/12 10:23:05;0.00;0.00;0.62;0.00;0.00;0.62;1.50;0.90;;;24.00;22.10;;;;;;2259355;61;20444;-64
2022/04/12 10:25:51;0.00;0.00;0.62;0.00;0.00;0.62;1.40;1.10;;;24.00;22.10;;;;;;2259062;61;20365;-66
2022/04/12 10:28:37;0.00;0.00;0.62;0.00;0.00;0.62;1.60;0.80;;;24.10;22.10;;;;;;2258467;61;20369;-65
2022/04/12 10:31:25;0.00;0.00;0.62;0.00;0.00;0.62;2.17;1.30;;;24.10;22.20;;;;;;2259642;61;20401;-63
2022/04/12 10:34:14;0.00;0.00;0.62;0.00;0.00;0.62;1.40;0.80;;;24.10;22.20;;;;;;2259482;61;20415;-65
2022/04/12 10:37:10;0.00;0.00;0.62;0.00;0.00;0.62;1.57;1.00;;;24.10;22.20;;;;;;2258797;61;20369;-64
2022/04/12 10:40:02;0.00;0.00;0.62;0.00;0.00;0.62;1.50;1.10;;;24.20;22.20;;;;;;2258838;61;20433;-65
2022/04/12 10:42:50;0.00;0.00;0.62;0.00;0.00;0.62;1.73;1.37;;;24.20;22.20;;;;;;2258875;61;20392;-64
2022/04/12 10:45:34;0.00;0.00;0.62;0.00;0.00;0.62;1.40;0.97;;;24.20;22.20;;;;;;2259265;61;20368;-65
2022/04/12 10:48:20;0.00;0.00;0.62;0.00;0.00;0.62;1.60;0.83;;;24.20;22.20;;;;;;2258437;61;21152;-63
2022/04/12 10:51:07;0.00;0.00;0.62;0.00;0.00;0.62;1.90;1.00;;;24.20;22.20;;;;;;2258840;61;20945;-64
2022/04/12 10:53:55;0.00;0.00;0.62;0.00;0.00;0.62;1.60;1.03;;;24.30;22.30;;;;;;2257405;61;20382;-64
2022/04/12 10:56:42;0.00;0.00;0.62;0.00;0.00;0.62;1.57;1.00;;;24.30;22.30;;;;;;2256576;61;20362;-65
2022/04/12 10:59:46;0.00;0.00;0.62;0.00;0.00;0.62;1.50;0.90;;;24.30;22.30;;;;;;2255585;61;20425;-63